sensor_id;sensor_type;location;lat;lon;timestamp;P1;durP1;ratioP1;P2;durP2;ratioP2
3567;SDS011;1798;48.486;9.232;2023-07-29T00:21:26;8.40;;;3.30;;
3567;SDS011;1798;48.486;9.232;2023-07-29T00:23:53;10.75;;;3.28;;
3567;SDS011;1798;48.486;9.232;2023-07-29T00:26:22;6.40;;;3.03;;
3567;SDS011;1798;48.486;9.232;2023-07-29T00:28:51;8.35;;;3.15;;
3567;SDS011;1798;48.486;9.232;2023-07-29T00:31:17;7.20;;;3.10;;
3567;SDS011;1798;48.486;9.232;2023-07-29T00:33:46;8.73;;;3.40;;
3567;SDS011;1798;48.486;9.232;2023-07-29T00:36:12;7.22;;;3.40;;
3567;SDS011;1798;48.486;9.232;2023-07-29T00:38:39;10.18;;;3.17;;
3567;SDS011;1798;48.486;9.232;2023-07-29T00:41:06;7.82;;;3.10;;
3567;SDS011;1798;48.486;9.232;2023-07-29T00:43:33;8.55;;;3.33;;
3567;SDS011;1798;48.486;9.232;2023-07-29T00:46:00;8.27;;;3.13;;
3567;SDS011;1798;48.486;9.232;2023-07-29T00:48:27;7.68;;;3.15;;
3567;SDS011;1798;48.486;9.232;2023-07-29T00:50:55;6.93;;;3.00;;
3567;SDS011;1798;48.486;9.232;2023-07-29T00:53:22;6.18;;;3.10;;
3567;SDS011;1798;48.486;9.232;2023-07-29T00:55:49;11.57;;;3.78;;
3567;SDS011;1798;48.486;9.232;2023-07-29T00:58:16;12.68;;;3.22;;
3567;SDS011;1798;48.486;9.232;2023-07-29T04:16:45;7.63;;;4.03;;
3567;SDS011;1798;48.486;9.232;2023-07-29T04:19:14;6.80;;;3.87;;
3567;SDS011;1798;48.486;9.232;2023-07-29T04:21:40;6.77;;;3.60;;
3567;SDS011;1798;48.486;9.232;2023-07-29T04:24:07;6.33;;;3.47;;
3567;SDS011;1798;48.486;9.232;2023-07-29T04:26:34;14.90;;;3.60;;
3567;SDS011;1798;48.486;9.232;2023-07-29T04:29:01;10.60;;;3.67;;
3567;SDS011;1798;48.486;9.232;2023-07-29T04:31:28;14.93;;;3.53;;
3567;SDS011;1798;48.486;9.232;2023-07-29T04:33:56;8.07;;;3.40;;
3567;SDS011;1798;48.486;9.232;2023-07-29T04:36:22;6.40;;;3.87;;
3567;SDS011;1798;48.486;9.232;2023-07-29T04:38:49;5.80;;;3.00;;
3567;SDS011;1798;48.486;9.232;2023-07-29T04:41:16;7.20;;;3.87;;
3567;SDS011;1798;48.486;9.232;2023-07-29T04:43:43;10.10;;;3.20;;
3567;SDS011;1798;48.486;9.232;2023-07-29T04:53:30;10.33;;;3.30;;
3567;SDS011;1798;48.486;9.232;2023-07-29T04:55:57;6.73;;;3.50;;
3567;SDS011;1798;48.486;9.232;2023-07-29T04:58:24;6.93;;;3.43;;
3567;SDS011;1798;48.486;9.232;2023-07-29T05:00:53;7.00;;;3.43;;
3567;SDS011;1798;48.486;9.232;2023-07-29T05:03:20;7.20;;;3.17;;
3567;SDS011;1798;48.486;9.232;2023-07-29T05:05:47;8.77;;;2.87;;
3567;SDS011;1798;48.486;9.232;2023-07-29T05:08:15;11.30;;;3.87;;
3567;SDS011;1798;48.486;9.232;2023-07-29T05:10:41;5.60;;;3.00;;
3567;SDS011;1798;48.486;9.232;2023-07-29T05:13:08;6.93;;;3.43;;
3567;SDS011;1798;48.486;9.232;2023-07-29T05:15:35;6.57;;;3.20;;
3567;SDS011;1798;48.486;9.232;2023-07-29T05:18:01;9.43;;;3.37;;
3567;SDS011;1798;48.486;9.232;2023-07-29T05:20:28;7.10;;;3.00;;
3567;SDS011;1798;48.486;9.232;2023-07-29T05:22:55;10.10;;;3.90;;
3567;SDS011;1798;48.486;9.232;2023-07-29T05:25:23;5.70;;;3.20;;
3567;SDS011;1798;48.486;9.232;2023-07-29T05:27:50;7.17;;;3.10;;
3567;SDS011;1798;48.486;9.232;2023-07-29T05:30:16;9.60;;;3.60;;
3567;SDS011;1798;48.486;9.232;2023-07-29T05:32:43;6.40;;;2.93;;
3567;SDS011;1798;48.486;9.232;2023-07-29T05:35:10;8.60;;;3.30;;
3567;SDS011;1798;48.486;9.232;2023-07-29T05:37:37;6.53;;;3.10;;
3567;SDS011;1798;48.486;9.232;2023-07-29T05:40:04;7.00;;;2.80;;
3567;SDS011;1798;48.486;9.232;2023-07-29T05:42:33;14.33;;;3.33;;
3567;SDS011;1798;48.486;9.232;2023-07-29T05:45:00;10.23;;;3.23;;
3567;SDS011;1798;48.486;9.232;2023-07-29T05:47:27;5.53;;;2.93;;
3567;SDS011;1798;48.486;9.232;2023-07-29T05:49:53;5.00;;;2.73;;
3567;SDS011;1798;48.486;9.232;2023-07-29T05:52:20;7.50;;;3.33;;
3567;SDS011;1798;48.486;9.232;2023-07-29T05:54:47;7.77;;;3.40;;
3567;SDS011;1798;48.486;9.232;2023-07-29T05:57:14;13.87;;;3.70;;
3567;SDS011;1798;48.486;9.232;2023-07-29T05:59:42;5.90;;;3.20;;
3567;SDS011;1798;48.486;9.232;2023-07-29T06:02:08;27.13;;;3.60;;
3567;SDS011;1798;48.486;9.232;2023-07-29T06:04:35;5.50;;;3.43;;
3567;SDS011;1798;48.486;9.232;2023-07-29T06:07:02;14.60;;;3.30;;
3567;SDS011;1798;48.486;9.232;2023-07-29T06:09:29;7.67;;;2.80;;
3567;SDS011;1798;48.486;9.232;2023-07-29T06:11:55;7.30;;;3.43;;
3567;SDS011;1798;48.486;9.232;2023-07-29T06:14:22;8.32;;;3.20;;
3567;SDS011;1798;48.486;9.232;2023-07-29T06:16:50;11.15;;;3.70;;
3567;SDS011;1798;48.486;9.232;2023-07-29T06:19:17;5.30;;;2.60;;
3567;SDS011;1798;48.486;9.232;2023-07-29T06:21:44;7.38;;;3.03;;
3567;SDS011;1798;48.486;9.232;2023-07-29T06:24:10;7.10;;;2.97;;
3567;SDS011;1798;48.486;9.232;2023-07-29T06:26:37;6.40;;;3.08;;
3567;SDS011;1798;48.486;9.232;2023-07-29T06:29:04;10.10;;;2.73;;
3567;SDS011;1798;48.486;9.232;2023-07-29T06:31:31;8.50;;;3.70;;
3567;SDS011;1798;48.486;9.232;2023-07-29T06:33:59;7.20;;;3.30;;
3567;SDS011;1798;48.486;9.232;2023-07-29T06:36:26;8.68;;;3.28;;
3567;SDS011;1798;48.486;9.232;2023-07-29T06:38:53;8.77;;;3.55;;
3567;SDS011;1798;48.486;9.232;2023-07-29T06:41:19;6.57;;;3.40;;
3567;SDS011;1798;48.486;9.232;2023-07-29T06:43:46;7.43;;;2.78;;
3567;SDS011;1798;48.486;9.232;2023-07-29T06:46:13;6.00;;;2.80;;
3567;SDS011;1798;48.486;9.232;2023-07-29T06:48:39;5.90;;;3.00;;
3567;SDS011;1798;48.486;9.232;2023-07-29T06:51:07;6.80;;;2.90;;
3567;SDS011;1798;48.486;9.232;2023-07-29T06:53:34;6.40;;;3.00;;
3567;SDS011;1798;48.486;9.232;2023-07-29T06:56:01;7.07;;;2.90;;
3567;SDS011;1798;48.486;9.232;2023-07-29T06:58:28;7.40;;;2.97;;
3567;SDS011;1798;48.486;9.232;2023-07-29T07:00:54;5.60;;;2.70;;
3567;SDS011;1798;48.486;9.232;2023-07-29T07:03:21;7.60;;;3.27;;
3567;SDS011;1798;48.486;9.232;2023-07-29T07:05:48;6.83;;;3.50;;
3567;SDS011;1798;48.486;9.232;2023-07-29T07:08:16;5.93;;;3.23;;
3567;SDS011;1798;48.486;9.232;2023-07-29T08:58:27;7.33;;;3.60;;
3567;SDS011;1798;48.486;9.232;2023-07-29T09:03:21;6.60;;;3.40;;
3567;SDS011;1798;48.486;9.232;2023-07-29T09:05:48;6.85;;;3.35;;
3567;SDS011;1798;48.486;9.232;2023-07-29T10:59:32;8.30;;;4.00;;
3567;SDS011;1798;48.486;9.232;2023-07-29T11:02:00;6.30;;;3.57;;
3567;SDS011;1798;48.486;9.232;2023-07-29T12:21:26;7.20;;;3.20;;
3567;SDS011;1798;48.486;9.232;2023-07-29T12:26:19;6.60;;;3.60;;
3567;SDS011;1798;48.486;9.232;2023-07-29T12:28:46;11.60;;;4.60;;
3567;SDS011;1798;48.486;9.232;2023-07-29T12:31:13;9.00;;;3.60;;
3567;SDS011;1798;48.486;9.232;2023-07-29T12:33:41;7.97;;;3.70;;
3567;SDS011;1798;48.486;9.232;2023-07-29T12:36:08;10.80;;;3.90;;
3567;SDS011;1798;48.486;9.232;2023-07-29T13:10:26;13.65;;;4.30;;
3567;SDS011;1798;48.486;9.232;2023-07-29T13:12:53;8.50;;;4.90;;
3567;SDS011;1798;48.486;9.232;2023-07-29T13:15:19;11.57;;;4.53;;
3567;SDS011;1798;48.486;9.232;2023-07-29T13:20:13;56.50;;;3.93;;
3567;SDS011;1798;48.486;9.232;2023-07-29T13:25:07;13.57;;;4.20;;
3567;SDS011;1798;48.486;9.232;2023-07-29T13:27:34;7.60;;;5.10;;
3567;SDS011;1798;48.486;9.232;2023-07-29T13:30:01;10.40;;;4.63;;
3567;SDS011;1798;48.486;9.232;2023-07-29T13:32:27;11.07;;;4.60;;
3567;SDS011;1798;48.486;9.232;2023-07-29T13:34:54;13.23;;;5.13;;
3567;SDS011;1798;48.486;9.232;2023-07-29T13:37:21;13.57;;;5.30;;
3567;SDS011;1798;48.486;9.232;2023-07-29T13:39:47;9.40;;;4.40;;
3567;SDS011;1798;48.486;9.232;2023-07-29T13:42:15;7.90;;;3.93;;
3567;SDS011;1798;48.486;9.232;2023-07-29T13:44:43;9.03;;;4.50;;
3567;SDS011;1798;48.486;9.232;2023-07-29T13:47:09;7.37;;;4.00;;
3567;SDS011;1798;48.486;9.232;2023-07-29T13:49:36;9.60;;;4.53;;
3567;SDS011;1798;48.486;9.232;2023-07-29T13:52:03;8.50;;;4.77;;
3567;SDS011;1798;48.486;9.232;2023-07-29T13:54:30;9.10;;;4.53;;
3567;SDS011;1798;48.486;9.232;2023-07-29T13:56:57;9.20;;;4.50;;
3567;SDS011;1798;48.486;9.232;2023-07-29T13:59:25;10.53;;;5.00;;
3567;SDS011;1798;48.486;9.232;2023-07-29T14:01:52;14.80;;;5.90;;
3567;SDS011;1798;48.486;9.232;2023-07-29T14:04:19;11.07;;;5.00;;
3567;SDS011;1798;48.486;9.232;2023-07-29T14:06:46;10.33;;;4.80;;
3567;SDS011;1798;48.486;9.232;2023-07-29T14:09:12;10.70;;;4.40;;
3567;SDS011;1798;48.486;9.232;2023-07-29T14:11:39;8.80;;;4.50;;
3567;SDS011;1798;48.486;9.232;2023-07-29T14:14:05;11.30;;;5.87;;
3567;SDS011;1798;48.486;9.232;2023-07-29T14:16:33;8.10;;;4.73;;
3567;SDS011;1798;48.486;9.232;2023-07-29T14:18:59;9.67;;;4.67;;
3567;SDS011;1798;48.486;9.232;2023-07-29T14:21:26;8.63;;;4.93;;
3567;SDS011;1798;48.486;9.232;2023-07-29T14:23:53;10.77;;;4.90;;
3567;SDS011;1798;48.486;9.232;2023-07-29T14:26:20;9.07;;;4.80;;
3567;SDS011;1798;48.486;9.232;2023-07-29T14:28:47;10.90;;;5.30;;
3567;SDS011;1798;48.486;9.232;2023-07-29T14:31:15;10.10;;;4.80;;
3567;SDS011;1798;48.486;9.232;2023-07-29T14:33:43;9.93;;;5.37;;
3567;SDS011;1798;48.486;9.232;2023-07-29T14:36:10;7.60;;;4.40;;
3567;SDS011;1798;48.486;9.232;2023-07-29T14:38:37;9.87;;;4.60;;
3567;SDS011;1798;48.486;9.232;2023-07-29T14:41:03;7.43;;;4.70;;
3567;SDS011;1798;48.486;9.232;2023-07-29T14:43:30;9.33;;;4.20;;
3567;SDS011;1798;48.486;9.232;2023-07-29T14:45:57;8.90;;;4.50;;
3567;SDS011;1798;48.486;9.232;2023-07-29T14:48:24;8.10;;;5.07;;
3567;SDS011;1798;48.486;9.232;2023-07-29T14:50:52;7.90;;;4.33;;
3567;SDS011;1798;48.486;9.232;2023-07-29T14:53:19;7.50;;;4.30;;
3567;SDS011;1798;48.486;9.232;2023-07-29T14:55:45;10.53;;;4.30;;
3567;SDS011;1798;48.486;9.232;2023-07-29T14:58:12;8.90;;;4.90;;
3567;SDS011;1798;48.486;9.232;2023-07-29T15:00:39;8.40;;;4.37;;
3567;SDS011;1798;48.486;9.232;2023-07-29T15:03:05;7.93;;;4.60;;
3567;SDS011;1798;48.486;9.232;2023-07-29T15:05:32;8.90;;;4.63;;
3567;SDS011;1798;48.486;9.232;2023-07-29T15:08:00;7.97;;;4.40;;
3567;SDS011;1798;48.486;9.232;2023-07-29T15:10:27;11.57;;;4.93;;
3567;SDS011;1798;48.486;9.232;2023-07-29T15:12:54;8.33;;;4.73;;
3567;SDS011;1798;48.486;9.232;2023-07-29T15:15:20;12.67;;;4.73;;
3567;SDS011;1798;48.486;9.232;2023-07-29T17:17:48;11.05;;;4.40;;
3567;SDS011;1798;48.486;9.232;2023-07-29T17:20:15;10.27;;;4.40;;
3567;SDS011;1798;48.486;9.232;2023-07-29T17:22:43;12.27;;;4.30;;
3567;SDS011;1798;48.486;9.232;2023-07-29T17:25:11;8.10;;;4.47;;
3567;SDS011;1798;48.486;9.232;2023-07-29T17:27:38;9.80;;;3.90;;
3567;SDS011;1798;48.486;9.232;2023-07-29T17:30:05;7.40;;;4.17;;
3567;SDS011;1798;48.486;9.232;2023-07-29T17:32:33;10.43;;;5.10;;
3567;SDS011;1798;48.486;9.232;2023-07-29T17:35:00;9.20;;;4.90;;
3567;SDS011;1798;48.486;9.232;2023-07-29T17:37:26;7.88;;;4.30;;
3567;SDS011;1798;48.486;9.232;2023-07-29T17:39:53;7.50;;;4.03;;
3567;SDS011;1798;48.486;9.232;2023-07-29T17:42:21;8.73;;;4.63;;
3567;SDS011;1798;48.486;9.232;2023-07-29T17:44:48;12.17;;;4.90;;
3567;SDS011;1798;48.486;9.232;2023-07-29T17:47:14;10.47;;;4.73;;
3567;SDS011;1798;48.486;9.232;2023-07-29T17:49:43;9.50;;;4.47;;
3567;SDS011;1798;48.486;9.232;2023-07-29T17:52:10;9.13;;;5.63;;
3567;SDS011;1798;48.486;9.232;2023-07-29T17:54:37;10.60;;;4.77;;
3567;SDS011;1798;48.486;9.232;2023-07-29T17:57:04;9.47;;;5.10;;
3567;SDS011;1798;48.486;9.232;2023-07-29T17:59:34;13.40;;;5.27;;
3567;SDS011;1798;48.486;9.232;2023-07-29T18:02:01;8.03;;;4.63;;
3567;SDS011;1798;48.486;9.232;2023-07-29T18:04:27;10.00;;;5.20;;
3567;SDS011;1798;48.486;9.232;2023-07-29T18:06:54;9.67;;;4.60;;
3567;SDS011;1798;48.486;9.232;2023-07-29T18:09:21;10.67;;;5.87;;
3567;SDS011;1798;48.486;9.232;2023-07-29T18:11:47;9.10;;;5.40;;
3567;SDS011;1798;48.486;9.232;2023-07-29T18:14:14;12.90;;;5.33;;
3567;SDS011;1798;48.486;9.232;2023-07-29T18:16:43;10.67;;;5.27;;
3567;SDS011;1798;48.486;9.232;2023-07-29T18:19:09;11.73;;;5.50;;
3567;SDS011;1798;48.486;9.232;2023-07-29T18:21:36;7.60;;;4.40;;
3567;SDS011;1798;48.486;9.232;2023-07-29T18:24:03;10.47;;;5.83;;
3567;SDS011;1798;48.486;9.232;2023-07-29T18:26:30;11.67;;;5.00;;
3567;SDS011;1798;48.486;9.232;2023-07-29T18:28:57;8.70;;;5.63;;
3567;SDS011;1798;48.486;9.232;2023-07-29T18:31:24;9.63;;;4.90;;
3567;SDS011;1798;48.486;9.232;2023-07-29T18:33:52;14.30;;;6.63;;
3567;SDS011;1798;48.486;9.232;2023-07-29T18:36:19;14.43;;;5.77;;
3567;SDS011;1798;48.486;9.232;2023-07-29T18:38:46;18.43;;;5.77;;
3567;SDS011;1798;48.486;9.232;2023-07-29T18:41:14;12.07;;;5.40;;
3567;SDS011;1798;48.486;9.232;2023-07-29T18:43:41;27.73;;;4.87;;
3567;SDS011;1798;48.486;9.232;2023-07-29T18:46:08;9.33;;;5.30;;
3567;SDS011;1798;48.486;9.232;2023-07-29T18:48:34;13.23;;;5.30;;
3567;SDS011;1798;48.486;9.232;2023-07-29T18:51:02;11.70;;;5.93;;
3567;SDS011;1798;48.486;9.232;2023-07-29T18:53:30;16.63;;;4.80;;
3567;SDS011;1798;48.486;9.232;2023-07-29T18:55:56;7.97;;;4.47;;
3567;SDS011;1798;48.486;9.232;2023-07-29T18:58:23;16.63;;;4.97;;
3567;SDS011;1798;48.486;9.232;2023-07-29T19:05:44;12.43;;;6.50;;
3567;SDS011;1798;48.486;9.232;2023-07-29T19:15:32;17.43;;;8.23;;
3567;SDS011;1798;48.486;9.232;2023-07-29T19:17:59;8.07;;;5.23;;
3567;SDS011;1798;48.486;9.232;2023-07-29T19:20:26;20.03;;;4.90;;
3567;SDS011;1798;48.486;9.232;2023-07-29T19:22:55;12.40;;;5.20;;
3567;SDS011;1798;48.486;9.232;2023-07-29T19:25:23;9.80;;;5.63;;
3567;SDS011;1798;48.486;9.232;2023-07-29T19:27:49;7.93;;;4.83;;
3567;SDS011;1798;48.486;9.232;2023-07-29T19:32:43;13.30;;;6.00;;
3567;SDS011;1798;48.486;9.232;2023-07-29T19:35:09;10.43;;;6.00;;
3567;SDS011;1798;48.486;9.232;2023-07-29T19:37:36;12.23;;;5.20;;
3567;SDS011;1798;48.486;9.232;2023-07-29T20:26:33;14.40;;;4.83;;
3567;SDS011;1798;48.486;9.232;2023-07-29T20:38:52;15.33;;;4.83;;
3567;SDS011;1798;48.486;9.232;2023-07-29T20:41:19;8.70;;;5.33;;
3567;SDS011;1798;48.486;9.232;2023-07-29T20:43:46;13.57;;;5.57;;
3567;SDS011;1798;48.486;9.232;2023-07-29T20:48:43;14.27;;;5.25;;
3567;SDS011;1798;48.486;9.232;2023-07-29T20:51:11;13.35;;;4.50;;
3567;SDS011;1798;48.486;9.232;2023-07-29T20:53:41;12.60;;;5.53;;
3567;SDS011;1798;48.486;9.232;2023-07-29T20:56:07;14.97;;;5.27;;
3567;SDS011;1798;48.486;9.232;2023-07-29T20:58:34;11.00;;;5.23;;
3567;SDS011;1798;48.486;9.232;2023-07-29T21:01:02;11.05;;;5.40;;
3567;SDS011;1798;48.486;9.232;2023-07-29T21:03:28;8.38;;;4.93;;
3567;SDS011;1798;48.486;9.232;2023-07-29T21:05:55;14.95;;;4.80;;
3567;SDS011;1798;48.486;9.232;2023-07-29T21:08:23;16.00;;;4.80;;
3567;SDS011;1798;48.486;9.232;2023-07-29T21:23:07;8.83;;;5.20;;
3567;SDS011;1798;48.486;9.232;2023-07-29T21:25:35;9.00;;;5.22;;
3567;SDS011;1798;48.486;9.232;2023-07-29T21:28:02;8.63;;;4.97;;
3567;SDS011;1798;48.486;9.232;2023-07-29T21:30:29;15.23;;;5.93;;
3567;SDS011;1798;48.486;9.232;2023-07-29T21:32:55;10.52;;;5.97;;
3567;SDS011;1798;48.486;9.232;2023-07-29T21:35:24;12.88;;;5.65;;
3567;SDS011;1798;48.486;9.232;2023-07-29T21:37:51;11.95;;;5.53;;
3567;SDS011;1798;48.486;9.232;2023-07-29T21:40:17;9.88;;;6.20;;
3567;SDS011;1798;48.486;9.232;2023-07-29T21:42:45;14.93;;;6.00;;
3567;SDS011;1798;48.486;9.232;2023-07-29T21:45:12;9.98;;;5.57;;
3567;SDS011;1798;48.486;9.232;2023-07-29T21:47:39;8.90;;;5.30;;
3567;SDS011;1798;48.486;9.232;2023-07-29T21:50:06;14.98;;;5.50;;
3567;SDS011;1798;48.486;9.232;2023-07-29T21:52:33;11.38;;;6.38;;
3567;SDS011;1798;48.486;9.232;2023-07-29T21:55:00;11.32;;;5.70;;
3567;SDS011;1798;48.486;9.232;2023-07-29T21:57:27;9.10;;;5.07;;
3567;SDS011;1798;48.486;9.232;2023-07-29T21:59:55;19.97;;;5.30;;
3567;SDS011;1798;48.486;9.232;2023-07-29T23:47:31;15.03;;;4.50;;
3567;SDS011;1798;48.486;9.232;2023-07-29T23:57:17;11.00;;;5.10;;
3567;SDS011;1798;48.486;9.232;2023-07-29T23:59:46;8.50;;;5.10;;
